This is the latest recevied weather packets stored in our database for station/object SQ8SW-4. If no packets are shown the sender has not sent any weather packets the latest 10 day(s).
| Time | Temp. | Humidity | Pressure | Rain* | Wind** | Luminosity | Snow |
|---|---|---|---|---|---|---|---|
| 1777486676 | 6.67° C | 47% | 998 hPa | - | - | - | - |
| 1777483969 | 8.89° C | 43% | 997 hPa | - | - | - | - |
| 1777483066 | 10.56° C | 39% | 997 hPa | - | - | - | - |
| 1777481262 | 12.78° C | 30% | 997 hPa | - | - | - | - |
| 1777480359 | 13.89° C | 28% | 997 hPa | - | - | - | - |
| 1777478555 | 14.44° C | 25% | 997 hPa | - | - | - | - |
| 1777476750 | 11.67° C | 27% | 996 hPa | - | - | - | - |
| 1777475848 | 11.11° C | 28% | 996 hPa | - | - | - | - |
| 1777474946 | 10.56° C | 30% | 996 hPa | - | - | - | - |
| 1777473142 | 10.56° C | 28% | 996 hPa | - | - | - | - |
| 1777471337 | 10.56° C | 29% | 996 hPa | - | - | - | - |
| 1777469533 | 10.56° C | 31% | 996 hPa | - | - | - | - |
| 1777468630 | 10.56° C | 30% | 996 hPa | - | - | - | - |
| 1777467728 | 10° C | 31% | 996 hPa | - | - | - | - |
| 1777465924 | 10° C | 33% | 996 hPa | - | - | - | - |
| 1777465022 | 10° C | 35% | 996 hPa | - | - | - | - |
| 1777464119 | 9.44° C | 37% | 996 hPa | - | - | - | - |
| 1777462315 | 8.89° C | 39% | 996 hPa | - | - | - | - |
| 1777461413 | 8.89° C | 43% | 996 hPa | - | - | - | - |
| 1777460510 | 9.44° C | 44% | 996 hPa | - | - | - | - |
| 1777459608 | 9.44° C | 42% | 996 hPa | - | - | - | - |
| 1777458706 | 9.44° C | 41% | 996 hPa | - | - | - | - |
| 1777457804 | 9.44° C | 43% | 996 hPa | - | - | - | - |
| 1777456902 | 8.89° C | 44% | 996 hPa | - | - | - | - |
| 1777455097 | 8.33° C | 47% | 996 hPa | - | - | - | - |
* Rain since midnight (hover to see other rain measurements)
** Current wind speed in m/s (hover to see current wind gust speed)